Time;durP1;ratioP1;P1;durP2;ratioP2;P2;SDS_P1;SDS_P2;PMS_P1;PMS_P2;Temp;Humidity;BMP_temperature;BMP_pressure;BME280_temperature;BME280_humidity;BME280_pressure;Samples;Min_cycle;Max_cycle;Signal;HPM_P1;HPM_P2
2022/08/06 00:01:03;;;;;;;2.30;2.10;;;;;;;18.84;60.97;98821.97;5039092;28;20051;-76
2022/08/06 00:03:30;;;;;;;2.55;2.13;;;;;;;18.85;61.66;98815.63;5036995;28;20040;-75
2022/08/06 00:05:57;;;;;;;3.58;2.13;;;;;;;18.86;60.80;98817.25;5039620;28;20571;-76
2022/08/06 00:08:25;;;;;;;1.98;1.80;;;;;;;18.85;61.30;98820.13;5042073;28;20072;-76
2022/08/06 00:10:52;;;;;;;3.38;1.63;;;;;;;18.81;60.39;98818.88;5041877;28;20667;-76
2022/08/06 00:13:19;;;;;;;4.68;2.20;;;;;;;18.78;60.03;98819.28;5033541;28;20500;-77
2022/08/06 00:15:45;;;;;;;2.70;1.90;;;;;;;18.80;59.58;98822.56;5042707;28;20052;-76
2022/08/06 00:18:32;;;;;;;2.97;2.13;;;;;;;18.76;59.83;98832.03;5040077;28;20645;-76
2022/08/06 00:20:59;;;;;;;2.60;1.80;;;;;;;18.75;60.54;98828.53;5034885;28;20037;-75
2022/08/06 00:23:26;;;;;;;3.63;1.90;;;;;;;18.78;59.35;98827.31;5040784;28;22237;-74
2022/08/06 00:26:00;;;;;;;2.03;1.83;;;;;;;18.76;60.54;98832.88;5036445;28;20141;-76
2022/08/06 00:28:27;;;;;;;2.40;1.60;;;;;;;18.76;60.53;98835.53;5035773;28;20060;-74
2022/08/06 00:31:03;;;;;;;4.20;1.90;;;;;;;18.79;59.82;98837.00;5038085;28;20041;-74
2022/08/06 00:33:38;;;;;;;2.03;1.48;;;;;;;18.81;59.81;98830.44;5036403;28;20527;-77
2022/08/06 00:36:20;;;;;;;4.43;1.52;;;;;;;18.72;59.91;98834.28;5023572;28;20528;-77
2022/08/06 00:38:51;;;;;;;2.53;1.55;;;;;;;18.74;60.58;98834.06;5036770;28;20099;-77
2022/08/06 00:41:18;;;;;;;3.13;1.67;;;;;;;18.74;60.38;98834.06;5039077;28;20060;-76
2022/08/06 00:43:48;;;;;;;4.45;1.85;;;;;;;18.71;59.57;98829.91;5040439;28;20053;-75
2022/08/06 00:46:14;;;;;;;4.03;1.90;;;;;;;18.69;60.42;98834.63;5041581;28;20052;-77
2022/08/06 00:48:43;;;;;;;3.30;1.52;;;;;;;18.75;59.46;98825.88;5037788;28;20501;-76
2022/08/06 00:51:21;;;;;;;2.40;1.60;;;;;;;18.61;60.38;98832.94;5033530;28;20111;-75
2022/08/06 00:53:49;;;;;;;2.95;1.45;;;;;;;18.60;59.09;98833.16;5032895;28;20483;-76
2022/08/06 00:56:24;;;;;;;1.88;1.77;;;;;;;18.58;59.53;98835.19;5040836;28;20053;-75
2022/08/06 00:58:54;;;;;;;2.45;1.50;;;;;;;18.59;58.74;98839.53;5042254;28;20049;-76
2022/08/06 01:01:30;;;;;;;3.28;1.63;;;;;;;18.57;60.52;98844.28;5034662;28;20052;-77
2022/08/06 01:04:12;;;;;;;2.97;1.27;;;;;;;18.53;60.96;98857.22;5040121;28;20496;-76
2022/08/06 01:06:41;;;;;;;2.60;1.80;;;;;;;18.49;59.10;98847.09;5043045;28;20045;-73
2022/08/06 01:09:23;;;;;;;1.83;1.45;;;;;;;18.53;59.43;98853.72;5031115;28;20498;-76
2022/08/06 01:11:50;;;;;;;5.43;1.60;;;;;;;18.52;59.89;98847.53;5037152;28;20056;-76
2022/08/06 01:14:18;;;;;;;2.25;1.20;;;;;;;18.50;59.34;98852.25;5041085;28;20399;-75
2022/08/06 01:17:16;;;;;;;1.02;0.93;;;;;;;18.48;59.01;98856.97;5038623;28;20515;-76
2022/08/06 01:20:29;;;;;;;3.17;1.50;;;;;;;18.49;61.75;98847.91;5038923;28;20077;-76
2022/08/06 01:23:32;;;;;;;4.07;1.35;;;;;;;18.48;59.30;98848.09;5038534;28;20049;-76
2022/08/06 01:26:01;;;;;;;2.33;1.58;;;;;;;18.50;59.60;98859.47;5043188;28;20492;-76
2022/08/06 01:28:32;;;;;;;2.55;1.70;;;;;;;18.53;58.09;98856.38;5044517;28;20041;-76
2022/08/06 01:31:09;;;;;;;3.22;1.40;;;;;;;18.53;59.09;98857.22;5046368;28;20052;-75
2022/08/06 01:33:41;;;;;;;2.53;1.30;;;;;;;18.48;58.58;98859.63;5041120;28;20042;-75
2022/08/06 01:36:19;;;;;;;1.92;1.30;;;;;;;18.41;59.28;98866.81;5040986;28;20133;-76
2022/08/06 01:38:54;;;;;;;1.63;1.53;;;;;;;18.39;58.87;98861.66;5037944;28;20049;-74
2022/08/06 01:41:38;;;;;;;3.53;1.57;;;;;;;18.39;58.83;98855.47;5042054;28;20064;-75
2022/08/06 01:44:31;;;;;;;3.17;1.60;;;;;;;18.29;58.44;98853.13;5046130;28;20298;-76
2022/08/06 01:47:02;;;;;;;3.10;1.50;;;;;;;18.30;58.36;98853.94;5040671;28;20042;-76
2022/08/06 01:49:49;;;;;;;4.47;1.58;;;;;;;18.25;58.64;98853.72;5039299;28;20056;-77
2022/08/06 01:52:34;;;;;;;4.13;1.58;;;;;;;18.13;58.06;98856.06;5022620;28;20503;-76
2022/08/06 01:55:05;;;;;;;2.75;1.85;;;;;;;18.07;57.89;98854.16;5046068;28;20037;-76
2022/08/06 01:57:36;;;;;;;2.63;1.60;;;;;;;17.98;58.11;98854.31;5046186;28;20404;-76
2022/08/06 02:00:23;;;;;;;3.03;1.60;;;;;;;17.98;59.41;98862.34;5036997;28;20048;-75
2022/08/06 02:02:56;;;;;;;;;;;;;;;17.91;60.15;98864.13;5041307;28;20108;-76
2022/08/06 02:05:23;;;;;;;2.42;1.48;;;;;;;17.90;58.29;98864.28;5041000;28;19925;-76
2022/08/06 02:07:58;;;;;;;4.60;1.33;;;;;;;17.91;58.68;98871.31;5040973;28;20047;-76
2022/08/06 02:10:45;;;;;;;1.98;1.50;;;;;;;17.88;58.75;98869.84;5042664;28;20448;-76
2022/08/06 02:13:14;;;;;;;1.48;0.90;;;;;;;17.95;59.00;98867.22;5039210;28;20057;-74
2022/08/06 02:15:42;;;;;;;3.25;1.50;;;;;;;17.88;60.39;98869.03;5029850;28;20037;-75
2022/08/06 02:18:27;;;;;;;1.70;1.30;;;;;;;17.83;60.21;98869.59;5038507;28;20143;-77
2022/08/06 02:21:03;;;;;;;2.28;1.48;;;;;;;17.80;59.54;98871.81;5038915;28;20045;-73
2022/08/06 02:23:51;;;;;;;3.30;1.50;;;;;;;17.77;59.64;98859.59;5030577;28;20045;-77
2022/08/06 02:26:19;;;;;;;3.20;1.55;;;;;;;17.66;59.27;98858.25;5036935;28;20112;-76
2022/08/06 02:28:52;;;;;;;2.67;1.10;;;;;;;17.63;59.23;98863.97;5037124;28;20041;-74
2022/08/06 02:31:18;;;;;;;3.40;1.80;;;;;;;17.61;59.64;98865.19;5041351;28;20484;-75
2022/08/06 02:33:49;;;;;;;2.40;1.30;;;;;;;17.54;60.41;98871.31;5026676;28;20115;-75
2022/08/06 02:36:41;;;;;;;2.63;1.45;;;;;;;17.46;60.87;98863.41;5036313;28;20057;-76
2022/08/06 02:39:23;;;;;;;3.28;1.75;;;;;;;17.43;60.33;98877.16;5040549;28;20046;-76
2022/08/06 02:42:24;;;;;;;2.58;1.25;;;;;;;17.49;61.87;98881.75;5041915;28;20086;-77
2022/08/06 02:45:00;;;;;;;4.03;1.58;;;;;;;17.46;60.13;98883.97;5041555;28;20553;-76
2022/08/06 02:47:36;;;;;;;3.63;1.48;;;;;;;17.52;60.31;98877.84;5032933;28;20049;-77
2022/08/06 02:50:29;;;;;;;1.55;1.23;;;;;;;17.52;61.35;98881.34;5037445;28;20557;-76
2022/08/06 02:53:06;;;;;;;4.72;1.77;;;;;;;17.45;60.95;98874.28;5043712;28;20029;-76
2022/08/06 02:55:54;;;;;;;3.20;1.20;;;;;;;17.42;61.72;98878.16;5034184;28;20034;-76
2022/08/06 02:58:43;;;;;;;1.40;1.10;;;;;;;17.35;60.75;98869.19;5046838;28;20491;-75
2022/08/06 03:01:28;;;;;;;2.85;1.52;;;;;;;17.32;61.88;98878.47;5040807;28;20061;-73
2022/08/06 03:04:05;;;;;;;4.07;1.48;;;;;;;17.37;62.14;98875.19;5034098;28;20052;-76
2022/08/06 03:06:35;;;;;;;2.95;1.23;;;;;;;17.40;60.34;98884.69;5043637;28;20142;-76
2022/08/06 03:09:04;;;;;;;3.38;1.45;;;;;;;17.41;61.52;98884.53;5042087;28;20140;-77
2022/08/06 03:11:33;;;;;;;4.18;1.60;;;;;;;17.46;60.44;98895.50;5042378;28;20041;-76
2022/08/06 03:14:01;;;;;;;3.03;1.52;;;;;;;17.46;60.90;98889.31;5045393;28;20052;-76
2022/08/06 03:16:39;;;;;;;2.15;1.70;;;;;;;17.51;61.51;98885.06;5046951;28;20076;-77
2022/08/06 03:19:12;;;;;;;2.10;1.30;;;;;;;17.49;62.38;98889.75;5044671;28;20482;-76
2022/08/06 03:22:00;;;;;;;2.15;1.60;;;;;;;17.50;62.01;98891.41;5042443;28;20049;-74
2022/08/06 03:24:27;;;;;;;2.50;1.30;;;;;;;17.47;61.74;98899.81;5042645;28;20040;-76
2022/08/06 03:26:57;;;;;;;3.22;1.60;;;;;;;17.49;61.25;98891.63;5041772;28;20095;-76
2022/08/06 03:29:27;;;;;;;7.63;1.77;;;;;;;17.48;61.58;98893.47;5036929;28;20053;-74
2022/08/06 03:31:55;;;;;;;4.90;1.85;;;;;;;17.51;61.27;98897.63;5037854;28;20049;-76
2022/08/06 03:34:39;;;;;;;3.80;1.60;;;;;;;17.49;61.89;98900.47;5039404;28;20045;-74
2022/08/06 03:37:08;;;;;;;6.38;1.70;;;;;;;17.50;60.73;98904.78;5037404;28;20049;-76
2022/08/06 03:39:41;;;;;;;2.92;1.65;;;;;;;17.45;62.39;98898.34;5043717;28;20047;-77
2022/08/06 03:42:13;;;;;;;2.75;1.33;;;;;;;17.50;61.74;98901.28;5041285;28;20098;-76
2022/08/06 03:44:40;;;;;;;5.00;1.70;;;;;;;17.47;61.38;98907.00;5036843;28;20117;-76
2022/08/06 03:47:16;;;;;;;2.88;1.13;;;;;;;17.44;61.66;98908.22;5043894;28;20037;-73
2022/08/06 03:50:10;;;;;;;2.22;1.58;;;;;;;17.43;61.79;98911.91;5032372;28;20068;-74
2022/08/06 03:52:40;;;;;;;4.03;1.97;;;;;;;17.49;61.73;98913.00;5044602;28;20076;-76
2022/08/06 03:55:08;;;;;;;4.00;1.83;;;;;;;17.48;61.66;98920.22;5033155;28;21454;-76
2022/08/06 03:57:44;;;;;;;2.72;1.50;;;;;;;17.52;63.12;98926.00;5041242;28;20049;-77
2022/08/06 04:00:18;;;;;;;1.77;1.17;;;;;;;17.50;62.63;98926.19;5034825;28;20037;-77
2022/08/06 04:02:55;;;;;;;3.78;1.63;;;;;;;17.43;61.04;98932.47;5025241;28;20568;-76
2022/08/06 04:05:27;;;;;;;2.83;1.40;;;;;;;17.40;61.73;98922.97;5045401;28;20496;-75
2022/08/06 04:07:59;;;;;;;5.03;1.50;;;;;;;17.46;62.17;98929.44;5037728;28;20404;-76
2022/08/06 04:10:37;;;;;;;3.00;1.63;;;;;;;17.39;62.82;98925.84;5040636;28;20057;-72
2022/08/06 04:13:11;;;;;;;3.58;1.63;;;;;;;17.39;62.88;98924.00;5036059;28;20045;-76
2022/08/06 04:15:58;;;;;;;2.13;1.27;;;;;;;17.43;61.90;98927.13;5040465;28;20055;-77
2022/08/06 04:18:31;;;;;;;1.77;1.42;;;;;;;17.38;63.12;98935.72;5038239;28;20120;-76
2022/08/06 04:21:01;;;;;;;2.38;1.30;;;;;;;17.40;62.72;98944.34;5038737;28;20135;-75
2022/08/06 04:23:47;;;;;;;2.85;1.52;;;;;;;17.43;63.59;98949.38;5034127;28;20087;-76
2022/08/06 04:26:17;;;;;;;2.47;1.70;;;;;;;17.42;61.97;98947.69;5042314;28;20048;-75
2022/08/06 04:28:46;;;;;;;3.30;1.60;;;;;;;17.44;62.03;98939.50;5031053;28;20638;-74
2022/08/06 04:31:27;;;;;;;2.40;1.60;;;;;;;17.39;63.27;98941.91;5034351;28;20492;-73
2022/08/06 04:34:25;;;;;;;3.60;1.52;;;;;;;17.45;62.73;98941.97;5039159;28;20060;-76
2022/08/06 04:36:55;;;;;;;2.17;1.40;;;;;;;17.52;62.83;98950.91;5049143;28;20412;-76
2022/08/06 04:39:23;;;;;;;3.72;1.73;;;;;;;17.48;62.31;98956.81;5036528;28;20169;-75
2022/08/06 04:42:03;;;;;;;2.13;1.42;;;;;;;17.58;62.53;98952.00;5042639;28;20103;-75
2022/08/06 04:44:32;;;;;;;2.80;1.83;;;;;;;17.59;62.91;98948.34;5034159;28;20139;-76
2022/08/06 04:47:00;;;;;;;2.75;1.45;;;;;;;17.65;61.33;98947.56;5033927;28;20045;-75
2022/08/06 04:49:27;;;;;;;2.17;1.45;;;;;;;17.68;61.84;98952.56;5034287;28;20045;-75
2022/08/06 04:52:26;;;;;;;3.47;1.90;;;;;;;17.69;61.41;98969.44;5035150;28;20126;-76
2022/08/06 04:55:08;;;;;;;3.08;1.40;;;;;;;17.57;62.11;98968.25;5033948;28;20117;-75
2022/08/06 04:57:50;;;;;;;2.40;1.38;;;;;;;17.57;62.24;98970.94;5045153;28;20036;-75
2022/08/06 05:00:28;;;;;;;3.15;2.10;;;;;;;17.57;61.83;98978.97;5041874;28;20067;-76
2022/08/06 05:03:15;;;;;;;2.47;1.98;;;;;;;17.51;62.40;98981.38;5037691;28;20450;-73
2022/08/06 05:05:47;;;;;;;4.90;1.73;;;;;;;17.43;63.12;98985.97;5041332;28;20037;-75
2022/08/06 05:08:14;;;;;;;3.75;1.67;;;;;;;17.43;62.15;98986.81;5041577;28;20052;-76
2022/08/06 05:10:48;;;;;;;3.95;1.50;;;;;;;17.47;63.01;98981.91;5044621;28;20052;-75
2022/08/06 05:13:15;;;;;;;3.10;2.15;;;;;;;17.53;61.92;98992.69;5041364;28;20055;-75
2022/08/06 05:16:05;;;;;;;1.58;1.48;;;;;;;17.53;61.30;98991.88;5044238;28;20048;-75
2022/08/06 05:18:49;;;;;;;2.22;1.67;;;;;;;17.64;62.15;98991.41;5040107;28;20041;-76
2022/08/06 05:21:38;;;;;;;2.28;1.50;;;;;;;17.83;62.79;98995.38;5040230;28;20557;-76
2022/08/06 05:24:25;;;;;;;4.18;1.95;;;;;;;17.78;60.70;98989.72;5032901;28;20069;-76
2022/08/06 05:27:05;;;;;;;2.20;1.40;;;;;;;17.93;60.94;98993.25;5042127;28;20525;-76
2022/08/06 05:29:32;;;;;;;7.03;1.83;;;;;;;17.89;61.39;98999.97;5037317;28;20045;-76
2022/08/06 05:32:02;;;;;;;1.58;1.42;;;;;;;17.73;61.45;98997.50;5042225;28;20052;-74
2022/08/06 05:34:30;;;;;;;3.83;1.50;;;;;;;17.77;62.31;99001.44;5040681;28;20049;-77
2022/08/06 05:36:57;;;;;;;3.97;1.60;;;;;;;17.75;62.88;99004.31;5037871;28;20103;-76
2022/08/06 05:39:24;;;;;;;5.22;1.50;;;;;;;17.74;62.63;99009.84;5035771;28;20053;-75
2022/08/06 05:42:11;;;;;;;5.03;1.50;;;;;;;17.73;62.07;99008.19;5040756;28;20052;-74
2022/08/06 05:44:37;;;;;;;4.70;2.08;;;;;;;17.54;62.37;99004.25;5042517;28;20397;-76
2022/08/06 05:47:12;;;;;;;4.38;1.85;;;;;;;17.57;62.69;99008.41;5041586;28;20049;-76
2022/08/06 05:49:43;;;;;;;2.22;1.67;;;;;;;17.57;63.16;99013.75;5041113;28;20084;-74
2022/08/06 05:52:30;;;;;;;3.35;2.13;;;;;;;17.46;63.74;99012.38;5038590;28;20117;-76
2022/08/06 05:55:02;;;;;;;3.95;2.45;;;;;;;17.35;62.25;99010.94;5041014;28;20041;-76
2022/08/06 05:57:36;;;;;;;2.30;1.95;;;;;;;17.19;63.36;99009.28;5045702;28;20064;-74
2022/08/06 06:00:11;;;;;;;5.38;2.30;;;;;;;17.22;62.71;99018.78;5043721;28;20049;-75
2022/08/06 06:02:59;;;;;;;4.82;2.35;;;;;;;17.18;63.05;99015.66;5042701;28;20047;-75
2022/08/06 06:05:29;;;;;;;3.25;2.17;;;;;;;17.39;63.83;99024.81;5037992;28;20106;-74
2022/08/06 06:08:18;;;;;;;2.83;2.15;;;;;;;17.41;62.15;99023.59;5024549;28;20049;-75
2022/08/06 06:11:08;;;;;;;2.92;1.65;;;;;;;17.57;61.56;99019.91;5035780;28;20049;-76
2022/08/06 06:13:41;;;;;;;1.70;1.60;;;;;;;17.55;61.85;99022.75;5047782;28;20037;-75
2022/08/06 06:16:38;;;;;;;4.28;2.25;;;;;;;17.62;62.80;99027.41;5045917;28;20037;-75
2022/08/06 06:19:20;;;;;;;3.70;1.80;;;;;;;17.70;61.24;99030.81;5043104;28;20150;-76
2022/08/06 06:22:03;;;;;;;3.05;1.90;;;;;;;17.86;62.02;99031.66;5046779;28;20045;-76
2022/08/06 06:24:34;;;;;;;;;;;;;;;17.88;61.72;99035.81;5042264;28;20432;-74
2022/08/06 06:27:12;;;;;;;2.65;2.00;;;;;;;18.04;61.83;99039.31;5037507;28;19920;-76
2022/08/06 06:30:02;;;;;;;5.53;2.30;;;;;;;17.91;61.42;99037.28;5051558;28;20380;-76
2022/08/06 06:32:50;;;;;;;2.05;1.67;;;;;;;18.10;60.98;99044.72;5038824;28;20041;-76
2022/08/06 06:35:27;;;;;;;5.32;2.03;;;;;;;18.40;60.48;99047.31;5041940;28;20037;-76
2022/08/06 06:38:07;;;;;;;5.50;1.80;;;;;;;18.63;60.26;99047.16;5039434;28;20527;-74
2022/08/06 06:40:46;;;;;;;2.15;1.50;;;;;;;18.70;58.92;99055.25;5039167;28;20120;-76
2022/08/06 06:43:39;;;;;;;3.38;1.67;;;;;;;18.73;59.75;99049.50;5033455;28;20072;-76
2022/08/06 06:46:20;;;;;;;4.35;2.10;;;;;;;18.38;59.84;99052.06;5041754;28;21611;-75
2022/08/06 06:49:27;;;;;;;3.30;1.83;;;;;;;18.41;59.92;99055.16;5039451;28;20507;-76
2022/08/06 06:52:33;;;;;;;2.97;1.88;;;;;;;18.36;60.15;99056.75;5041596;28;20056;-76
2022/08/06 06:55:13;;;;;;;3.65;2.00;;;;;;;18.45;61.09;99063.66;5041985;28;20060;-74
2022/08/06 06:58:20;;;;;;;7.40;1.92;;;;;;;18.14;60.14;99064.75;5038542;28;20041;-76
2022/08/06 07:00:52;;;;;;;5.10;1.88;;;;;;;18.42;60.18;99059.50;5036255;28;20076;-76
2022/08/06 07:03:40;;;;;;;2.25;1.75;;;;;;;18.77;58.47;99058.84;5047680;28;20532;-73
2022/08/06 07:06:10;;;;;;;3.38;2.08;;;;;;;19.11;59.36;99065.34;5041840;28;20094;-76
2022/08/06 07:08:58;;;;;;;4.07;2.33;;;;;;;19.13;57.14;99064.13;5038695;28;20534;-75
2022/08/06 07:11:25;;;;;;;2.75;2.10;;;;;;;19.16;57.44;99068.28;5037138;28;20523;-74
2022/08/06 07:13:54;;;;;;;2.38;1.33;;;;;;;19.13;57.74;99069.50;5037058;28;20687;-75
2022/08/06 07:16:26;;;;;;;5.03;1.75;;;;;;;18.97;57.75;99075.13;5042963;28;20413;-73
2022/08/06 07:19:04;;;;;;;2.40;1.90;;;;;;;18.87;58.60;99070.09;5038856;28;20072;-73
2022/08/06 07:21:31;;;;;;;3.65;1.90;;;;;;;18.75;59.53;99069.78;5039469;28;20456;-75
2022/08/06 07:23:58;;;;;;;2.33;2.13;;;;;;;18.86;57.62;99065.75;5027027;28;20072;-75
2022/08/06 07:26:46;;;;;;;4.75;1.70;;;;;;;18.93;58.42;99069.34;5046148;28;20063;-76
2022/08/06 07:29:18;;;;;;;3.33;1.70;;;;;;;18.57;58.56;99059.47;5039151;28;20044;-76
2022/08/06 07:32:07;;;;;;;5.60;1.98;;;;;;;18.49;59.15;99069.47;5030278;28;20055;-76
2022/08/06 07:34:54;;;;;;;5.32;2.20;;;;;;;18.55;59.93;99076.75;5038277;28;20579;-76
2022/08/06 07:37:21;;;;;;;4.07;2.20;;;;;;;18.39;59.07;99085.84;5038932;28;20423;-73
2022/08/06 07:39:49;;;;;;;3.97;2.20;;;;;;;18.56;59.23;99084.63;5044994;28;20045;-76
2022/08/06 07:42:17;;;;;;;3.60;1.70;;;;;;;18.73;59.71;99073.63;5033927;28;20049;-76
2022/08/06 07:44:53;;;;;;;4.00;1.80;;;;;;;19.06;57.46;99084.69;5039096;28;20682;-75
2022/08/06 07:47:26;;;;;;;6.07;2.35;;;;;;;19.28;57.43;99086.34;5039783;28;20051;-75
2022/08/06 07:50:12;;;;;;;4.82;1.75;;;;;;;19.38;58.08;99088.69;5030510;28;20068;-74
2022/08/06 07:52:39;;;;;;;3.92;1.90;;;;;;;19.27;57.19;99081.16;5037903;28;20073;-75
2022/08/06 07:55:10;;;;;;;2.85;1.83;;;;;;;19.46;55.88;99080.47;5041577;28;20057;-76
2022/08/06 07:57:39;;;;;;;5.03;2.55;;;;;;;19.20;57.75;99083.78;5035458;28;20049;-76
2022/08/06 08:00:24;;;;;;;2.78;2.25;;;;;;;18.84;57.90;99078.50;5042644;28;20059;-75
2022/08/06 08:06:23;;;;;;;4.47;2.03;;;;;;;19.38;56.27;99087.81;5038747;28;20603;-76
2022/08/06 08:08:57;;;;;;;4.38;1.80;;;;;;;19.77;55.61;99081.94;5041229;28;20056;-76
2022/08/06 08:11:25;;;;;;;3.22;2.03;;;;;;;20.14;55.30;99074.47;5037495;28;20658;-76
2022/08/06 08:14:13;;;;;;;3.13;1.75;;;;;;;20.63;53.45;99076.13;5033138;28;20106;-74
2022/08/06 08:16:41;;;;;;;3.97;1.58;;;;;;;20.49;52.87;99074.41;5041827;28;20055;-75
2022/08/06 08:19:33;;;;;;;2.75;2.05;;;;;;;20.67;52.27;99080.06;5038934;28;20041;-77
2022/08/06 08:22:05;;;;;;;5.60;1.80;;;;;;;20.71;51.66;99075.09;5029212;28;20519;-75
2022/08/06 08:24:33;;;;;;;4.25;1.80;;;;;;;21.30;52.78;99074.31;5039879;28;20056;-76
2022/08/06 08:27:00;;;;;;;3.83;1.90;;;;;;;21.25;51.49;99066.88;5039087;28;20033;-77
2022/08/06 08:29:39;;;;;;;4.25;2.05;;;;;;;21.28;51.98;99062.94;5040816;28;20139;-76
2022/08/06 08:32:17;;;;;;;1.98;1.63;;;;;;;21.02;51.93;99055.69;5039091;28;20116;-76
2022/08/06 08:34:45;;;;;;;4.28;1.80;;;;;;;20.75;51.64;99054.84;5043193;28;20223;-75
2022/08/06 08:37:18;;;;;;;3.80;1.83;;;;;;;20.89;52.16;99058.38;5039577;28;20106;-75
2022/08/06 08:39:46;;;;;;;4.00;2.05;;;;;;;20.85;51.54;99057.94;5035685;28;20063;-75
2022/08/06 08:42:18;;;;;;;4.43;2.05;;;;;;;20.94;52.15;99050.53;5027543;28;20049;-74
2022/08/06 08:44:59;;;;;;;2.30;1.70;;;;;;;21.14;52.16;99056.72;4949330;28;20049;-75
2022/08/06 08:47:27;;;;;;;5.90;2.25;;;;;;;22.30;49.34;99050.69;5017934;28;20042;-77
2022/08/06 08:50:14;;;;;;;2.58;1.83;;;;;;;22.68;47.21;99054.41;5017899;28;20061;-73
2022/08/06 08:52:47;;;;;;;6.00;1.80;;;;;;;22.79;47.26;99059.09;5016988;28;20108;-73
2022/08/06 08:55:17;;;;;;;1.53;1.43;;;;;;;23.20;49.52;99055.91;5013076;28;20130;-74
2022/08/06 08:58:04;;;;;;;2.35;1.70;;;;;;;23.22;45.55;99059.22;5015699;28;20033;-74
2022/08/06 09:00:50;;;;;;;6.28;1.73;;;;;;;22.59;47.15;99053.81;5018650;28;20049;-74
2022/08/06 09:03:21;;;;;;;3.00;1.70;;;;;;;22.20;48.46;99055.72;5014993;28;20480;-74
2022/08/06 09:05:49;;;;;;;2.20;1.52;;;;;;;21.15;51.21;99057.56;5017176;28;20136;-74
2022/08/06 09:08:19;;;;;;;3.55;1.80;;;;;;;20.81;51.66;99059.41;5017737;28;20042;-75
2022/08/06 09:11:07;;;;;;;1.75;1.60;;;;;;;21.32;49.67;99064.16;5021490;28;20044;-75
2022/08/06 09:13:53;;;;;;;3.22;1.70;;;;;;;21.44;49.08;99059.03;5017561;28;20424;-74
2022/08/06 09:16:29;;;;;;;4.22;1.90;;;;;;;21.60;49.80;99060.44;5010240;28;20374;-74
2022/08/06 09:18:59;;;;;;;2.10;1.80;;;;;;;21.34;50.49;99070.16;5016021;28;20052;-73
2022/08/06 09:21:27;;;;;;;6.13;2.30;;;;;;;21.10;50.84;99068.13;5029843;28;20488;-74
2022/08/06 09:23:56;;;;;;;3.67;2.22;;;;;;;21.42;48.87;99077.22;5020932;28;20034;-73
2022/08/06 09:26:24;;;;;;;3.50;1.77;;;;;;;21.40;48.35;99068.53;5018612;28;20658;-74
2022/08/06 09:29:21;;;;;;;2.10;1.90;;;;;;;21.16;48.69;99067.28;5010258;28;20054;-74
2022/08/06 09:31:58;;;;;;;4.35;1.88;;;;;;;21.51;49.04;99072.44;5014774;28;20504;-73
2022/08/06 09:34:36;;;;;;;3.72;1.70;;;;;;;20.98;50.82;99075.97;5014304;28;20529;-74
2022/08/06 09:37:07;;;;;;;7.82;2.55;;;;;;;20.94;50.57;99080.94;5016589;28;20097;-74
2022/08/06 09:39:41;;;;;;;4.70;1.63;;;;;;;20.58;51.30;99082.09;5017178;28;20559;-75
2022/08/06 09:42:38;;;;;;;4.72;1.92;;;;;;;20.32;51.76;99076.63;5016483;28;20046;-73
2022/08/06 09:45:10;;;;;;;4.97;1.95;;;;;;;21.03;50.60;99077.00;5017014;28;20110;-73
2022/08/06 09:47:47;;;;;;;3.08;1.90;;;;;;;21.02;48.85;99078.03;5016826;28;20128;-76
2022/08/06 09:50:37;;;;;;;4.10;1.90;;;;;;;21.64;49.10;99075.97;5019406;28;20048;-75
2022/08/06 09:53:04;;;;;;;4.60;1.83;;;;;;;21.72;48.42;99080.28;5020716;28;20152;-74
2022/08/06 09:55:40;;;;;;;3.15;1.80;;;;;;;22.09;48.52;99070.66;5020378;28;20210;-74
2022/08/06 09:58:07;;;;;;;2.65;1.80;;;;;;;22.04;46.78;99072.34;5023516;28;20467;-74
2022/08/06 10:00:36;;;;;;;3.65;1.83;;;;;;;;;;5019377;28;20084;-74
2022/08/06 10:03:06;;;;;;;2.97;1.80;;;;;;;22.57;45.32;99067.53;5015979;28;20129;-74
2022/08/06 10:06:14;;;;;;;2.70;1.70;;;;;;;22.36;45.27;99075.97;5018980;28;20044;-74
2022/08/06 10:08:43;;;;;;;6.18;2.15;;;;;;;22.30;45.59;99072.25;5022827;28;20053;-74
2022/08/06 10:11:39;;;;;;;6.22;2.47;;;;;;;22.34;44.53;99073.47;5021899;28;20056;-74
2022/08/06 10:14:22;;;;;;;4.05;1.60;;;;;;;22.46;44.94;99072.78;5024134;28;20516;-75
2022/08/06 10:17:02;;;;;;;1.95;1.40;;;;;;;23.16;43.10;99076.28;5022611;28;20041;-74
2022/08/06 10:19:34;;;;;;;5.57;2.05;;;;;;;23.24;43.94;99067.09;5015608;28;20073;-73
2022/08/06 10:22:16;;;;;;;2.35;1.75;;;;;;;23.74;41.78;99067.06;5018170;28;20069;-73
2022/08/06 10:24:50;;;;;;;3.38;1.88;;;;;;;23.40;41.60;99073.81;5020226;28;20762;-73
2022/08/06 10:27:22;;;;;;;5.50;1.70;;;;;;;22.75;42.53;99071.38;5023551;28;20046;-73
2022/08/06 10:29:51;;;;;;;3.85;1.60;;;;;;;22.22;44.58;99072.50;5023634;28;20056;-73
2022/08/06 10:32:40;;;;;;;4.43;2.03;;;;;;;22.62;44.10;99066.91;5022403;28;20435;-73
2022/08/06 10:35:10;;;;;;;1.83;1.55;;;;;;;23.01;43.19;99064.97;5015524;28;20416;-73
2022/08/06 10:37:42;;;;;;;4.30;1.40;;;;;;;23.03;45.16;99068.28;5015418;28;20057;-73
2022/08/06 10:40:22;;;;;;;;;;;;;;;23.41;43.67;99064.66;5026478;28;20042;-73
2022/08/06 10:42:56;;;;;;;3.30;1.88;;;;;;;23.80;41.89;99065.31;5022546;28;19939;-73
2022/08/06 10:45:25;;;;;;;5.72;1.95;;;;;;;24.05;41.82;99062.56;5028695;28;20076;-73
2022/08/06 10:47:53;;;;;;;2.58;1.52;;;;;;;23.38;45.32;99057.84;5017142;28;20038;-73
2022/08/06 10:50:39;;;;;;;5.15;1.67;;;;;;;23.73;43.14;99068.13;5018696;28;20062;-73
2022/08/06 10:53:21;;;;;;;2.03;1.90;;;;;;;23.80;44.26;99060.78;5017780;28;20555;-74
2022/08/06 10:56:09;;;;;;;2.65;1.52;;;;;;;23.66;43.24;99062.75;5027136;28;20050;-74
2022/08/06 10:58:38;;;;;;;2.88;1.48;;;;;;;22.84;43.14;99061.16;5021502;28;20128;-73
2022/08/06 11:01:09;;;;;;;5.07;2.10;;;;;;;22.98;42.90;99066.25;5026295;28;20042;-74
2022/08/06 11:03:58;;;;;;;2.28;1.67;;;;;;;22.58;44.46;99062.97;5020132;28;20050;-73
2022/08/06 11:07:01;;;;;;;4.68;1.80;;;;;;;23.30;45.93;99055.44;5020557;28;20404;-74
2022/08/06 11:09:47;;;;;;;6.75;1.52;;;;;;;23.17;42.82;99053.66;5014461;28;20049;-73
2022/08/06 11:12:36;;;;;;;2.50;1.38;;;;;;;23.76;41.09;99053.34;5025889;28;20505;-73
2022/08/06 11:15:06;;;;;;;1.48;1.35;;;;;;;24.00;40.96;99057.81;5028126;28;20045;-74
2022/08/06 11:17:51;;;;;;;7.45;1.67;;;;;;;24.19;39.98;99053.22;5037573;28;20054;-73
2022/08/06 11:20:32;;;;;;;2.60;1.20;;;;;;;24.05;41.99;99051.75;5018188;28;20046;-74
2022/08/06 11:23:25;;;;;;;3.17;1.42;;;;;;;24.39;40.06;99046.75;5026193;28;20041;-74
2022/08/06 11:26:32;;;;;;;3.67;1.55;;;;;;;23.57;43.29;99033.56;5017800;28;20075;-73
2022/08/06 11:29:06;;;;;;;1.63;1.50;;;;;;;24.60;43.71;99040.03;5021568;28;20531;-74
2022/08/06 11:31:43;;;;;;;5.13;1.50;;;;;;;25.51;37.91;99033.31;5016394;28;20053;-74
2022/08/06 11:34:40;;;;;;;3.85;1.50;;;;;;;25.23;38.34;99025.94;5020732;28;20942;-74
2022/08/06 11:37:43;;;;;;;3.03;1.48;;;;;;;23.97;40.19;99030.44;5017004;28;20137;-74
2022/08/06 11:40:55;;;;;;;6.88;1.75;;;;;;;24.16;42.50;99025.81;5017056;28;20492;-74
2022/08/06 11:43:40;;;;;;;3.10;1.67;;;;;;;24.26;43.46;99031.50;5013411;28;20046;-74
2022/08/06 11:46:27;;;;;;;4.10;1.80;;;;;;;24.40;39.10;99032.16;5021267;28;20423;-75
2022/08/06 11:49:03;;;;;;;3.33;1.38;;;;;;;23.36;41.42;99021.31;5024160;28;20686;-74
2022/08/06 11:51:53;;;;;;;2.53;1.10;;;;;;;23.20;42.63;99020.81;5020147;28;20052;-73
2022/08/06 11:54:36;;;;;;;3.83;1.70;;;;;;;22.71;43.39;99025.13;5024038;28;20054;-74
2022/08/06 11:57:07;;;;;;;2.60;1.52;;;;;;;23.31;42.30;99015.75;5000164;28;20050;-74
2022/08/06 11:59:54;;;;;;;3.40;1.40;;;;;;;23.58;40.83;99019.81;5012145;28;20045;-74
2022/08/06 12:02:45;;;;;;;3.22;1.70;;;;;;;23.11;41.18;99021.31;5021596;28;20133;-75
2022/08/06 12:05:15;;;;;;;3.70;1.90;;;;;;;22.83;42.55;99024.41;5019238;28;20060;-74
2022/08/06 12:07:45;;;;;;;3.25;1.83;;;;;;;23.00;41.74;99012.06;5023725;28;20064;-74
2022/08/06 12:10:18;;;;;;;5.07;1.65;;;;;;;23.12;41.41;99014.91;5021031;28;20065;-74
2022/08/06 12:12:55;;;;;;;2.10;1.30;;;;;;;22.35;44.91;99006.91;5019866;28;20061;-74
2022/08/06 12:15:26;;;;;;;2.15;1.30;;;;;;;22.38;43.98;99008.34;5019197;28;20053;-75
2022/08/06 12:18:12;;;;;;;1.85;1.40;;;;;;;22.21;43.44;99002.63;5015764;28;20042;-73
2022/08/06 12:20:55;;;;;;;3.47;1.92;;;;;;;22.22;42.39;99002.44;5020292;28;20049;-75
2022/08/06 12:23:25;;;;;;;3.60;2.20;;;;;;;22.21;42.74;98998.06;5013701;28;20531;-75
2022/08/06 12:26:12;;;;;;;4.10;1.50;;;;;;;22.29;44.72;98997.81;5020823;28;20067;-74